Time;durP1;ratioP1;P1;durP2;ratioP2;P2;SDS_P1;SDS_P2;PMS_P1;PMS_P2;Temp;Humidity;BMP_temperature;BMP_pressure;BME280_temperature;BME280_humidity;BME280_pressure;Samples;Min_cycle;Max_cycle;Signal;HPM_P1;HPM_P2
2022/11/11 00:05:31;;;;;;;;;;;10.00;99.90;;;;;;12618685;28;19924;-37
2022/11/11 00:11:35;;;;;;;;;;;10.00;99.90;;;;;;12616901;28;19924;-37
2022/11/11 00:30:18;;;;;;;;;;;10.00;99.90;;;;;;12600430;28;19928;-37
2022/11/11 00:36:19;;;;;;;;;;;9.90;99.90;;;;;;12609400;28;20315;-37
2022/11/11 00:42:21;;;;;;;;;;;9.90;99.90;;;;;;12619675;28;19932;-38
2022/11/11 00:54:43;;;;;;;;;;;9.90;99.90;;;;;;12609474;28;19924;-37
2022/11/11 01:00:46;;;;;;;;;;;9.80;99.90;;;;;;12589001;28;19933;-37
2022/11/11 01:06:47;;;;;;;;;;;9.80;99.90;;;;;;12589275;28;20322;-37
2022/11/11 01:13:10;;;;;;;;;;;9.90;99.90;;;;;;12614293;28;19924;-37
2022/11/11 01:19:13;;;;;;;;;;;9.80;99.90;;;;;;12615625;28;19939;-37
2022/11/11 01:25:14;;;;;;;;;;;9.90;99.90;;;;;;12602682;28;19928;-37
2022/11/11 01:31:17;;;;;;;;;;;9.90;99.90;;;;;;12606874;28;19955;-37
2022/11/11 01:37:19;;;;;;;;;;;9.80;99.90;;;;;;12610066;28;19932;-37
2022/11/11 01:43:22;;;;;;;;;;;9.80;99.90;;;;;;12607971;28;19931;-37
2022/11/11 01:49:37;;;;;;;;;;;9.80;99.90;;;;;;12611777;28;19931;-37
2022/11/11 01:55:39;;;;;;;;;;;10.00;99.90;;;;;;12626481;28;19928;-37
2022/11/11 02:01:41;;;;;;;;;;;9.90;99.90;;;;;;12615186;28;19924;-37
2022/11/11 02:07:43;;;;;;;;;;;9.90;99.90;;;;;;12624856;28;20061;-37
2022/11/11 02:20:05;;;;;;;;;;;10.10;99.90;;;;;;12624840;28;19944;-37
2022/11/11 02:26:08;;;;;;;;;;;10.00;99.90;;;;;;12589380;28;20456;-37
2022/11/11 02:32:10;;;;;;;;;;;9.90;99.90;;;;;;12614425;28;19925;-37
2022/11/11 02:38:12;;;;;;;;;;;9.90;99.90;;;;;;12614251;28;19977;-37
2022/11/11 02:44:14;;;;;;;;;;;9.90;99.90;;;;;;12623527;28;19931;-37
2022/11/11 02:50:16;;;;;;;;;;;9.90;99.90;;;;;;12615099;28;20391;-37
2022/11/11 02:57:06;;;;;;;;;;;9.80;99.90;;;;;;12613246;28;19936;-37
2022/11/11 03:02:39;;;;;;;;;;;9.90;99.90;;;;;;12618101;28;19951;-39
2022/11/11 03:08:41;;;;;;;;;;;9.80;99.90;;;;;;12609564;28;19947;-37
2022/11/11 03:14:43;;;;;;;;;;;9.80;99.90;;;;;;12605256;28;20376;-37
2022/11/11 03:21:03;;;;;;;;;;;9.80;99.90;;;;;;12617152;28;19932;-44
2022/11/11 03:27:25;;;;;;;;;;;9.80;99.90;;;;;;12624081;28;19947;-39
2022/11/11 03:33:27;;;;;;;;;;;9.70;99.90;;;;;;12603766;28;20007;-39
2022/11/11 03:39:29;;;;;;;;;;;9.70;99.90;;;;;;12627676;28;19950;-39
2022/11/11 03:45:31;;;;;;;;;;;9.80;99.90;;;;;;12613035;28;19985;-39
2022/11/11 03:51:32;;;;;;;;;;;9.80;99.90;;;;;;12614092;28;19928;-39
2022/11/11 03:57:37;;;;;;;;;;;9.70;99.90;;;;;;12612867;28;19931;-38
2022/11/11 04:16:19;;;;;;;;;;;9.80;99.90;;;;;;12615381;28;19924;-38
2022/11/11 04:22:21;;;;;;;;;;;9.80;99.90;;;;;;12601139;28;19949;-39
2022/11/11 04:34:45;;;;;;;;;;;9.80;99.90;;;;;;12606432;28;19928;-39
2022/11/11 04:41:02;;;;;;;;;;;9.80;99.90;;;;;;12624663;28;19936;-39
2022/11/11 04:47:04;;;;;;;;;;;9.80;99.90;;;;;;12614320;28;19928;-39
2022/11/11 04:53:07;;;;;;;;;;;9.80;99.90;;;;;;12599733;28;19924;-39
2022/11/11 04:59:19;;;;;;;;;;;9.90;99.90;;;;;;12611107;28;19931;-39
2022/11/11 05:05:21;;;;;;;;;;;9.90;99.90;;;;;;12590220;28;19970;-39
2022/11/11 05:11:26;;;;;;;;;;;9.90;99.90;;;;;;12618651;28;20422;-39
2022/11/11 05:30:10;;;;;;;;;;;9.80;99.90;;;;;;12609108;28;19924;-39
2022/11/11 05:36:12;;;;;;;;;;;9.80;99.90;;;;;;12622910;28;19924;-39
2022/11/11 05:42:14;;;;;;;;;;;9.80;99.90;;;;;;12622994;28;19935;-39
2022/11/11 05:48:15;;;;;;;;;;;9.90;99.90;;;;;;12616578;28;19931;-39
2022/11/11 05:54:17;;;;;;;;;;;9.80;99.90;;;;;;12609350;28;19936;-39
2022/11/11 06:00:19;;;;;;;;;;;9.70;99.90;;;;;;12622660;28;19924;-38
2022/11/11 06:06:21;;;;;;;;;;;9.70;99.90;;;;;;12611771;28;19924;-39
2022/11/11 06:12:22;;;;;;;;;;;9.70;99.90;;;;;;12620956;28;20308;-39
2022/11/11 06:18:24;;;;;;;;;;;9.60;99.90;;;;;;12612831;28;20388;-38
2022/11/11 06:24:31;;;;;;;;;;;9.60;99.90;;;;;;12625425;28;19977;-39
2022/11/11 06:30:33;;;;;;;;;;;9.70;99.90;;;;;;12621743;28;19929;-39
2022/11/11 06:36:51;;;;;;;;;;;9.70;99.90;;;;;;12602577;28;19925;-39
2022/11/11 06:42:53;;;;;;;;;;;9.70;99.90;;;;;;12612075;28;19947;-39
2022/11/11 06:48:55;;;;;;;;;;;9.70;99.90;;;;;;12622262;28;19929;-39
2022/11/11 06:54:57;;;;;;;;;;;9.80;99.90;;;;;;12618842;28;20006;-39
2022/11/11 07:00:58;;;;;;;;;;;9.80;99.90;;;;;;12612698;28;19931;-39
2022/11/11 07:07:00;;;;;;;;;;;9.90;99.90;;;;;;12598545;28;20072;-39
2022/11/11 07:13:02;;;;;;;;;;;9.90;99.90;;;;;;12605191;28;19924;-39
2022/11/11 07:19:04;;;;;;;;;;;9.90;99.90;;;;;;12608012;28;20534;-38
2022/11/11 07:25:06;;;;;;;;;;;9.90;99.90;;;;;;12606732;28;20042;-39
2022/11/11 07:31:08;;;;;;;;;;;9.90;99.90;;;;;;12606147;28;19969;-39
2022/11/11 07:37:10;;;;;;;;;;;10.00;99.90;;;;;;12605514;28;19929;-39
2022/11/11 07:43:11;;;;;;;;;;;10.10;99.90;;;;;;12611843;28;20299;-39
2022/11/11 07:49:13;;;;;;;;;;;10.10;99.90;;;;;;12610986;28;19931;-39
2022/11/11 07:55:15;;;;;;;;;;;10.20;99.90;;;;;;12612351;28;19935;-39
2022/11/11 08:01:17;;;;;;;;;;;10.20;99.90;;;;;;12604069;28;19924;-39
2022/11/11 08:07:18;;;;;;;;;;;10.30;99.90;;;;;;12613711;28;19932;-39
2022/11/11 08:13:39;;;;;;;;;;;10.30;99.90;;;;;;12583151;28;20404;-39
2022/11/11 08:19:40;;;;;;;;;;;10.40;99.90;;;;;;12611380;28;19973;-39
2022/11/11 08:25:42;;;;;;;;;;;10.50;99.90;;;;;;12606073;28;19924;-39
2022/11/11 08:31:44;;;;;;;;;;;10.50;99.90;;;;;;12609372;28;19924;-40
2022/11/11 08:37:46;;;;;;;;;;;10.60;99.90;;;;;;12603041;28;19936;-39
2022/11/11 08:43:54;;;;;;;;;;;10.60;99.90;;;;;;12598863;28;19932;-40
2022/11/11 08:49:56;;;;;;;;;;;10.70;99.90;;;;;;12614467;28;20368;-39
2022/11/11 08:55:59;;;;;;;;;;;10.80;99.90;;;;;;12622001;28;19937;-38
2022/11/11 09:02:01;;;;;;;;;;;10.80;99.90;;;;;;12620082;28;19924;-39
2022/11/11 09:08:06;;;;;;;;;;;10.90;99.90;;;;;;12605027;28;19928;-39
2022/11/11 09:14:07;;;;;;;;;;;10.90;99.90;;;;;;12612966;28;19924;-39
2022/11/11 09:20:09;;;;;;;;;;;11.00;99.90;;;;;;12608970;28;19924;-39
2022/11/11 09:26:11;;;;;;;;;;;11.00;99.90;;;;;;12604762;28;20368;-39
2022/11/11 09:32:13;;;;;;;;;;;11.10;99.90;;;;;;12618734;28;19999;-39
2022/11/11 09:38:15;;;;;;;;;;;11.20;99.90;;;;;;12614443;28;19929;-39
2022/11/11 09:44:42;;;;;;;;;;;11.40;99.90;;;;;;12598481;28;19931;-39
2022/11/11 09:50:53;;;;;;;;;;;11.50;99.90;;;;;;12593906;28;19932;-39
2022/11/11 09:56:56;;;;;;;;;;;11.60;99.90;;;;;;12585216;28;19936;-39
2022/11/11 10:03:04;;;;;;;;;;;11.60;99.90;;;;;;12584106;28;20367;-39
2022/11/11 10:09:12;;;;;;;;;;;11.70;99.90;;;;;;12601120;28;19940;-39
2022/11/11 10:15:15;;;;;;;;;;;11.90;99.90;;;;;;12597642;28;19931;-39
2022/11/11 10:21:31;;;;;;;;;;;12.10;99.90;;;;;;12610515;28;19982;-39
2022/11/11 10:27:55;;;;;;;;;;;12.30;99.90;;;;;;12623458;28;19928;-39
2022/11/11 10:33:57;;;;;;;;;;;12.40;99.90;;;;;;12612075;28;19932;-39
2022/11/11 10:40:16;;;;;;;;;;;12.60;99.90;;;;;;12617750;28;19928;-40
2022/11/11 10:46:26;;;;;;;;;;;12.60;99.90;;;;;;12618056;28;19927;-39
2022/11/11 10:52:34;;;;;;;;;;;12.70;99.90;;;;;;12618228;28;20360;-38
2022/11/11 10:58:55;;;;;;;;;;;12.80;99.90;;;;;;12617484;28;19939;-39
2022/11/11 11:05:02;;;;;;;;;;;12.90;99.90;;;;;;12605692;28;19994;-39
2022/11/11 11:11:06;;;;;;;;;;;13.00;99.90;;;;;;12614583;28;19924;-40
2022/11/11 11:17:14;;;;;;;;;;;13.00;99.90;;;;;;12605715;28;19932;-39
2022/11/11 11:23:33;;;;;;;;;;;13.00;99.90;;;;;;12599050;28;19966;-39
2022/11/11 11:29:41;;;;;;;;;;;13.10;99.90;;;;;;12611137;28;19931;-39
2022/11/11 11:35:43;;;;;;;;;;;13.10;99.90;;;;;;12612821;28;19924;-39
2022/11/11 11:41:49;;;;;;;;;;;13.10;99.90;;;;;;12615525;28;19924;-39
2022/11/11 11:48:09;;;;;;;;;;;13.20;99.90;;;;;;12609419;28;19974;-39
2022/11/11 11:54:50;;;;;;;;;;;13.30;99.90;;;;;;12607291;28;19924;-39
2022/11/11 12:01:00;;;;;;;;;;;13.50;99.90;;;;;;12615476;28;19929;-40
2022/11/11 12:07:08;;;;;;;;;;;13.70;99.90;;;;;;12615637;28;19928;-40
2022/11/11 12:13:12;;;;;;;;;;;13.90;99.90;;;;;;12604071;28;19931;-39
2022/11/11 12:19:17;;;;;;;;;;;14.00;99.90;;;;;;12606463;28;19928;-39
2022/11/11 12:25:27;;;;;;;;;;;14.20;99.90;;;;;;12591044;28;19924;-39
2022/11/11 12:31:35;;;;;;;;;;;14.20;99.90;;;;;;12616103;28;19989;-39
2022/11/11 12:37:47;;;;;;;;;;;14.40;99.90;;;;;;12615675;28;19928;-39
2022/11/11 12:43:52;;;;;;;;;;;14.50;99.90;;;;;;12607417;28;19924;-39
2022/11/11 12:50:11;;;;;;;;;;;14.50;99.90;;;;;;12596808;28;19925;-39
2022/11/11 12:56:27;;;;;;;;;;;14.70;99.90;;;;;;12614529;28;19931;-39
2022/11/11 13:02:48;;;;;;;;;;;14.70;99.90;;;;;;12598469;28;19928;-39
2022/11/11 13:09:08;;;;;;;;;;;14.80;99.90;;;;;;12607565;28;20031;-39
2022/11/11 13:15:13;;;;;;;;;;;14.80;99.90;;;;;;12605739;28;20387;-39
2022/11/11 13:21:16;;;;;;;;;;;14.80;99.90;;;;;;12613543;28;19924;-39
2022/11/11 13:27:25;;;;;;;;;;;14.80;99.90;;;;;;12610198;28;19925;-39
2022/11/11 13:33:35;;;;;;;;;;;14.90;99.90;;;;;;12608375;28;19924;-39
2022/11/11 13:39:38;;;;;;;;;;;14.80;99.90;;;;;;12612872;28;20437;-39
2022/11/11 13:45:42;;;;;;;;;;;14.80;99.90;;;;;;12621935;28;20292;-39
2022/11/11 13:51:43;;;;;;;;;;;14.70;99.90;;;;;;12617817;28;19990;-39
2022/11/11 13:57:50;;;;;;;;;;;14.70;99.90;;;;;;12621851;28;19935;-39
2022/11/11 14:03:52;;;;;;;;;;;14.60;99.90;;;;;;12612599;28;19935;-40
2022/11/11 14:09:55;;;;;;;;;;;14.60;99.90;;;;;;12617394;28;19929;-39
2022/11/11 14:15:57;;;;;;;;;;;14.50;99.90;;;;;;12613397;28;19933;-39
2022/11/11 14:21:59;;;;;;;;;;;14.40;99.90;;;;;;12620882;28;19955;-40
2022/11/11 14:28:01;;;;;;;;;;;14.30;99.90;;;;;;12608699;28;19974;-39
2022/11/11 14:34:21;;;;;;;;;;;14.20;99.90;;;;;;12617838;28;19947;-39
2022/11/11 14:40:25;;;;;;;;;;;14.00;99.90;;;;;;12612128;28;19925;-39
2022/11/11 14:46:26;;;;;;;;;;;13.90;99.90;;;;;;12616454;28;19924;-39
2022/11/11 14:52:33;;;;;;;;;;;13.80;99.90;;;;;;12620919;28;20077;-39
2022/11/11 14:58:35;;;;;;;;;;;13.80;99.90;;;;;;12617028;28;20376;-39
2022/11/11 15:04:38;;;;;;;;;;;13.70;99.90;;;;;;12613627;28;20021;-39
2022/11/11 15:10:39;;;;;;;;;;;13.60;99.90;;;;;;12611865;28;19936;-39
2022/11/11 15:16:41;;;;;;;;;;;13.40;99.90;;;;;;12615577;28;19931;-39
2022/11/11 15:23:10;;;;;;;;;;;13.30;99.90;;;;;;12611016;28;20030;-39
2022/11/11 15:29:15;;;;;;;;;;;13.20;99.90;;;;;;12619640;28;20372;-39
2022/11/11 15:35:28;;;;;;;;;;;13.00;99.90;;;;;;12613614;28;19936;-39
2022/11/11 15:41:38;;;;;;;;;;;12.80;99.90;;;;;;12611647;28;19928;-39
2022/11/11 15:47:40;;;;;;;;;;;12.70;99.90;;;;;;12605982;28;19924;-39
2022/11/11 15:53:42;;;;;;;;;;;12.60;99.90;;;;;;12616629;28;19931;-39
2022/11/11 15:59:44;;;;;;;;;;;12.50;99.90;;;;;;12618509;28;19931;-38
2022/11/11 16:05:46;;;;;;;;;;;12.40;99.90;;;;;;12612899;28;19972;-39
2022/11/11 16:11:49;;;;;;;;;;;12.40;99.90;;;;;;12604497;28;20019;-39
2022/11/11 16:17:53;;;;;;;;;;;12.40;99.90;;;;;;12601274;28;19927;-39
2022/11/11 16:23:56;;;;;;;;;;;12.40;99.90;;;;;;12604190;28;19931;-39
2022/11/11 16:30:17;;;;;;;;;;;12.30;99.90;;;;;;12616361;28;19929;-39
2022/11/11 16:36:19;;;;;;;;;;;12.20;99.90;;;;;;12615616;28;19950;-39
2022/11/11 16:42:25;;;;;;;;;;;12.30;99.90;;;;;;12611537;28;19973;-39
2022/11/11 16:48:38;;;;;;;;;;;12.20;99.90;;;;;;12588889;28;20356;-39
2022/11/11 16:54:47;;;;;;;;;;;12.20;99.90;;;;;;12610553;28;19935;-39
2022/11/11 17:00:57;;;;;;;;;;;12.10;99.90;;;;;;12621049;28;19927;-39
2022/11/11 17:06:59;;;;;;;;;;;12.00;99.90;;;;;;12602245;28;19928;-39
2022/11/11 17:13:03;;;;;;;;;;;12.00;99.90;;;;;;12599148;28;19928;-39
2022/11/11 17:19:05;;;;;;;;;;;11.90;99.90;;;;;;12604011;28;19932;-39
2022/11/11 17:25:07;;;;;;;;;;;11.80;99.90;;;;;;12626562;28;19932;-39
2022/11/11 17:31:09;;;;;;;;;;;11.70;99.90;;;;;;12625773;28;20061;-38
2022/11/11 17:37:11;;;;;;;;;;;11.70;99.90;;;;;;12617970;28;19924;-39
2022/11/11 17:43:13;;;;;;;;;;;11.70;99.90;;;;;;12618038;28;19924;-39
2022/11/11 17:49:16;;;;;;;;;;;11.60;99.90;;;;;;12621149;28;19931;-39
2022/11/11 17:55:37;;;;;;;;;;;11.60;99.90;;;;;;12631315;28;19935;-40
2022/11/11 18:01:39;;;;;;;;;;;11.60;99.90;;;;;;12627334;28;19924;-39
2022/11/11 18:07:41;;;;;;;;;;;11.60;99.90;;;;;;12616308;28;20954;-39
2022/11/11 18:13:45;;;;;;;;;;;11.60;99.90;;;;;;12608413;28;19972;-39
2022/11/11 18:19:47;;;;;;;;;;;11.60;99.90;;;;;;12617033;28;19928;-39
2022/11/11 18:25:52;;;;;;;;;;;11.60;99.90;;;;;;12613793;28;19931;-39
2022/11/11 18:31:54;;;;;;;;;;;11.60;99.90;;;;;;12616578;28;19928;-39
2022/11/11 18:37:57;;;;;;;;;;;11.60;99.90;;;;;;12617727;28;19971;-39
2022/11/11 18:43:58;;;;;;;;;;;11.50;99.90;;;;;;12599364;28;19924;-39
2022/11/11 18:50:00;;;;;;;;;;;11.50;99.90;;;;;;12618490;28;20446;-39
2022/11/11 18:56:10;;;;;;;;;;;11.50;99.90;;;;;;12598029;28;19924;-39
2022/11/11 19:02:11;;;;;;;;;;;11.60;99.90;;;;;;12619117;28;19932;-39
2022/11/11 19:08:14;;;;;;;;;;;11.50;99.90;;;;;;12623008;28;19928;-41
2022/11/11 19:14:16;;;;;;;;;;;11.60;99.90;;;;;;12613282;28;19932;-39
2022/11/11 19:20:23;;;;;;;;;;;11.60;99.90;;;;;;12621063;28;19931;-39
2022/11/11 19:26:26;;;;;;;;;;;11.60;99.90;;;;;;12605011;28;19929;-39
2022/11/11 19:32:28;;;;;;;;;;;11.60;99.90;;;;;;12618152;28;19932;-39
2022/11/11 19:38:30;;;;;;;;;;;11.60;99.90;;;;;;12617688;28;19924;-39
2022/11/11 19:44:32;;;;;;;;;;;11.70;99.90;;;;;;12617458;28;19925;-39
2022/11/11 19:50:34;;;;;;;;;;;11.60;99.90;;;;;;12613071;28;20053;-39
2022/11/11 19:56:35;;;;;;;;;;;11.40;99.90;;;;;;12608337;28;19928;-39
2022/11/11 20:02:37;;;;;;;;;;;11.40;99.90;;;;;;12616743;28;19928;-39
2022/11/11 20:08:38;;;;;;;;;;;11.30;99.90;;;;;;12606251;28;19924;-39
2022/11/11 20:14:40;;;;;;;;;;;11.30;99.90;;;;;;12610519;28;19935;-39
2022/11/11 20:20:42;;;;;;;;;;;11.30;99.90;;;;;;12606014;28;19943;-39
2022/11/11 20:26:44;;;;;;;;;;;11.30;99.90;;;;;;12611937;28;19977;-39
2022/11/11 20:32:51;;;;;;;;;;;11.30;99.90;;;;;;12617956;28;20269;-39
2022/11/11 20:38:53;;;;;;;;;;;11.40;99.90;;;;;;12607858;28;20144;-39
2022/11/11 20:44:54;;;;;;;;;;;11.20;99.90;;;;;;12628042;28;20313;-39
2022/11/11 20:51:00;;;;;;;;;;;11.30;99.90;;;;;;12598226;28;19925;-39
2022/11/11 20:57:02;;;;;;;;;;;11.20;99.90;;;;;;12606606;28;19928;-40
2022/11/11 21:03:04;;;;;;;;;;;11.20;99.90;;;;;;12616165;28;19977;-39
2022/11/11 21:09:07;;;;;;;;;;;11.30;99.90;;;;;;12614397;28;19939;-39
2022/11/11 21:15:09;;;;;;;;;;;11.20;99.90;;;;;;12614490;28;19931;-39
2022/11/11 21:21:12;;;;;;;;;;;11.10;99.90;;;;;;12618887;28;20292;-39
2022/11/11 21:27:14;;;;;;;;;;;11.10;99.90;;;;;;12603859;28;19931;-39
2022/11/11 21:33:15;;;;;;;;;;;11.20;99.90;;;;;;12603543;28;19936;-39
2022/11/11 21:39:17;;;;;;;;;;;10.70;99.90;;;;;;12607979;28;19932;-39
2022/11/11 21:45:19;;;;;;;;;;;10.30;99.90;;;;;;12600373;28;19990;-39
2022/11/11 21:51:28;;;;;;;;;;;10.30;99.90;;;;;;12619796;28;19938;-39
2022/11/11 21:57:30;;;;;;;;;;;9.90;99.90;;;;;;12606019;28;19977;-39
2022/11/11 22:03:33;;;;;;;;;;;9.70;99.90;;;;;;12600026;28;19925;-39
2022/11/11 22:09:34;;;;;;;;;;;9.70;99.90;;;;;;12622039;28;19924;-38
2022/11/11 22:15:37;;;;;;;;;;;9.70;99.90;;;;;;12597467;28;19924;-39
2022/11/11 22:21:39;;;;;;;;;;;9.60;99.90;;;;;;12620512;28;19924;-38
2022/11/11 22:27:41;;;;;;;;;;;9.40;99.90;;;;;;12615349;28;19924;-37
2022/11/11 22:33:43;;;;;;;;;;;9.40;99.90;;;;;;12616380;28;19928;-37
2022/11/11 22:39:45;;;;;;;;;;;9.10;99.90;;;;;;12615027;28;19936;-37
2022/11/11 22:45:54;;;;;;;;;;;9.20;99.90;;;;;;12607478;28;20423;-38
2022/11/11 22:51:56;;;;;;;;;;;9.10;99.90;;;;;;12617129;28;20402;-37
2022/11/11 22:57:57;;;;;;;;;;;9.00;99.90;;;;;;12614267;28;19928;-37
2022/11/11 23:04:00;;;;;;;;;;;9.00;99.90;;;;;;12621647;28;20287;-37
2022/11/11 23:10:02;;;;;;;;;;;9.00;99.90;;;;;;12607468;28;19934;-37
2022/11/11 23:16:04;;;;;;;;;;;8.90;99.90;;;;;;12613414;28;19924;-37
2022/11/11 23:22:05;;;;;;;;;;;8.70;99.90;;;;;;12619150;28;19931;-37
2022/11/11 23:28:07;;;;;;;;;;;8.60;99.90;;;;;;12616700;28;19932;-37
2022/11/11 23:34:09;;;;;;;;;;;8.70;99.90;;;;;;12621839;28;19931;-37
2022/11/11 23:40:11;;;;;;;;;;;8.90;99.90;;;;;;12619654;28;19932;-37
2022/11/11 23:46:13;;;;;;;;;;;8.70;99.90;;;;;;12601762;28;19924;-37
2022/11/11 23:52:15;;;;;;;;;;;8.40;99.90;;;;;;12610347;28;19932;-37
2022/11/11 23:58:16;;;;;;;;;;;8.00;99.90;;;;;;12605622;28;20307;-37
